• Join FlightAware (Why Join?)
  • Login
  • US Flag 
04:46AM EDT


 

Airport Tracker/Info


-or-


 

Live Flight TrackerFlight Track Log ✈ EGF4039 ✈ 28-Apr-2013 ✈ KALO - KORD

Flight Track Log - Related Links

Times and Time Zones

All times are in EDT time to prevent confusion due to time zone crossing. See the EGF4039 flight status page for this flight to view local times or setup timezone preferences in your user account.

Time Position Orientation Groundspeed Altitude Reporting Facility
EDT Latitude Longitude Course Direction KTS MPH feet Rate Location/Type
04:56PM 42.4933 -92.3311 97° East 227 261 5,700  Level Chicago Center
04:57PM 42.4911 -92.2347 92° East 244 281 7,900 2,220 Climbing Chicago Center
04:58PM 42.4842 -92.1269 95° East 268 308 10,400 2,160 Climbing Chicago Center
04:59PM 42.4761 -91.9808 94° East 317 365 12,400 1,680 Climbing Chicago Center
05:00PM 42.4833 -91.6789 90° East  Level FlightAware Approximate
05:00PM 42.4694 -91.8489 94° East 348 400 13,900  Level Chicago Center
05:01PM 42.4762 -91.5582 97° East  Level FlightAware Approximate
05:01PM 42.4608 -91.7103 95° East 373 429 15,400  Level Chicago Center
05:02PM 42.4542 -91.5658 94° East 387 445 16,900 1,740 Climbing Chicago Center
05:03PM 42.4436 -91.3933 95° East 391 450 19,100 1,740 Climbing Chicago Center
05:04PM 42.4344 -91.2456 95° East 398 458 20,600 1,440 Climbing Chicago Center
05:05PM 42.4247 -91.0947 95° East 407 468 22,100 1,140 Climbing Chicago Center
05:06PM 42.4144 -90.9417 95° East 414 476 23,000 420 Climbing Chicago Center
05:07PM 42.4028 -90.7433 94° East 443 510 23,000  Level Chicago Center
05:08PM 42.4133 -90.5778 85° East 451 519 23,000  Level Chicago Center
05:09PM 42.4306 -90.4133 82° East 450 518 23,000  Level Chicago Center
05:10PM 42.4464 -90.2589 82° East 418 481 23,000 -420 Level Chicago Center
05:11PM 42.4625 -90.0997 82° East 362 417 22,200 -840 Descending Chicago Center
05:12PM 42.4756 -89.9667 82° East 360 414 21,300 -960 Descending Chicago Center
05:13PM 42.4892 -89.8275 82° East 357 411 20,300 -1,020 Descending Chicago Center
05:14PM 42.5011 -89.6975 83° East 351 404 19,300 -1,020 Descending Chicago Center
05:15PM 42.5142 -89.5689 82° East 347 399 18,300 -1,020 Descending Chicago Center
05:16PM 42.5256 -89.4419 83° East 341 392 17,300 -1,020 Descending Chicago Center
05:17PM 42.5406 -89.2953 82° East 337 388 16,200 -1,020 Descending Chicago Center
05:18PM 42.5539 -89.1544 83° East 372 428 15,200 -960 Descending Chicago Center
05:20PM 42.5314 -89.0186 103° East 376 433 14,300 -600 Descending Chicago Center
05:21PM 42.4919 -88.8872 112° Southeast 377 434 14,000 -900 Descending Chicago Center
05:22PM 42.4528 -88.7592 112° Southeast 370 426 12,500 -1,680 Descending Chicago Center
05:23PM 42.4106 -88.6189 112° Southeast 349 402 10,600 -1,740 Descending Chicago Center
05:24PM 42.3789 -88.5139 112° Southeast 317 365 9,000 -1,020 Descending Chicago Center
05:25PM 42.3297 -88.4244 127° Southeast 292 336 8,500 -900 Descending Chicago Center
05:26PM 42.2817 -88.3408 128° Southeast 286 329 7,200 -1,140 Descending Chicago Center
05:27PM 42.2356 -88.2608 128° Southeast 276 318 6,200 -960 Descending Chicago Center
05:28PM 42.1906 -88.1797 127° Southeast 273 314 5,300 -660 Descending Chicago Center
05:29PM 42.1472 -88.1081 129° Southeast 256 295 4,900 -900 Descending Chicago Center
05:30PM 42.0983 -88.0547 141° Southeast 237 273 3,500 -1,380 Descending Chicago Center